createdAt,value
2023-02-13T00:01:37.415Z,21.25
2023-02-13T00:06:39.119Z,18.10
2023-02-13T00:11:42.381Z,19.73
2023-02-13T00:16:44.142Z,18.77
2023-02-13T00:21:45.867Z,18.33
2023-02-13T00:26:48.954Z,19.50
2023-02-13T00:31:50.798Z,19.83
2023-02-13T00:36:52.604Z,20.25
2023-02-13T00:41:55.674Z,19.42
2023-02-13T00:46:57.339Z,18.90
2023-02-13T00:51:59.001Z,19.25
2023-02-13T00:57:02.521Z,18.42
2023-02-13T01:02:04.322Z,19.52
2023-02-13T01:07:06.064Z,20.02
2023-02-13T01:12:09.218Z,20.85
2023-02-13T01:17:13.620Z,20.52
2023-02-13T01:22:15.294Z,22.33
2023-02-13T01:27:18.587Z,23.70
2023-02-13T01:32:20.743Z,22.75
2023-02-13T01:37:22.549Z,20.98
2023-02-13T01:42:28.039Z,21.40
2023-02-13T01:47:38.049Z,23.23
2023-02-13T01:52:44.365Z,23.70
2023-02-13T01:57:52.744Z,22.23
2023-02-13T02:03:49.975Z,23.58
2023-02-13T02:09:18.472Z,21.62
2023-02-13T02:14:26.027Z,22.98
2023-02-13T02:19:41.817Z,24.08
2023-02-13T02:25:15.233Z,22.00
2023-02-13T02:30:50.701Z,22.58
2023-02-13T02:36:27.260Z,24.20
2023-02-13T02:47:41.807Z,22.45
2023-02-13T02:52:59.548Z,22.02
2023-02-13T02:58:29.407Z,23.45
2023-02-13T03:03:34.026Z,22.58
2023-02-13T03:08:43.546Z,22.23
2023-02-13T03:13:50.578Z,24.70
2023-02-13T03:18:59.910Z,25.65
2023-02-13T03:24:09.901Z,24.48
2023-02-13T03:29:18.371Z,22.98
2023-02-13T03:34:23.850Z,23.17
2023-02-13T03:39:46.604Z,23.80
2023-02-13T03:44:53.260Z,25.30
2023-02-13T03:49:55.111Z,24.00
2023-02-13T03:55:02.519Z,22.52
2023-02-13T04:00:08.581Z,26.58
2023-02-13T04:05:15.697Z,26.10
2023-02-13T04:10:19.779Z,26.17
2023-02-13T04:15:28.760Z,26.08
2023-02-13T04:20:31.963Z,24.40
2023-02-13T04:25:36.866Z,24.60
2023-02-13T04:30:38.914Z,26.67
2023-02-13T04:35:40.788Z,24.60
2023-02-13T04:41:01.715Z,23.87
2023-02-13T04:46:03.934Z,26.75
2023-02-13T04:51:06.236Z,24.70
2023-02-13T04:56:12.484Z,24.42
2023-02-13T05:01:15.741Z,22.95
2023-02-13T05:06:17.553Z,26.30
2023-02-13T05:11:23.768Z,26.23
2023-02-13T05:16:25.614Z,25.65
2023-02-13T05:21:27.426Z,25.42
2023-02-13T05:26:30.597Z,25.88
2023-02-13T05:31:33.894Z,25.08
2023-02-13T05:36:35.834Z,23.52
2023-02-13T05:41:39.467Z,23.08
2023-02-13T05:46:42.611Z,23.73
2023-02-13T05:51:44.474Z,24.40
2023-02-13T05:57:04.779Z,24.95
2023-02-13T06:02:06.518Z,25.33
2023-02-13T06:07:08.190Z,25.17
2023-02-13T06:12:11.226Z,25.45
2023-02-13T06:17:13.013Z,25.37
2023-02-13T06:22:14.653Z,24.50
2023-02-13T06:27:17.790Z,24.10
2023-02-13T06:32:19.466Z,24.77
2023-02-13T06:37:21.174Z,25.17
2023-02-13T06:42:24.298Z,25.60
2023-02-13T06:47:26.184Z,24.90
2023-02-13T06:52:28.322Z,26.33
2023-02-13T06:57:31.570Z,26.70
2023-02-13T07:02:33.462Z,25.73
2023-02-13T07:07:35.874Z,24.77
2023-02-13T07:12:39.073Z,26.23
2023-02-13T07:17:40.722Z,25.67
2023-02-13T07:22:42.411Z,26.37
2023-02-13T07:27:45.494Z,27.98
2023-02-13T07:32:47.204Z,28.42
2023-02-13T07:37:48.883Z,29.05
2023-02-13T07:42:51.916Z,30.12
2023-02-13T07:47:55.056Z,30.48
2023-02-13T07:52:57.337Z,28.58
2023-02-13T07:58:01.435Z,29.77
2023-02-13T08:03:03.304Z,24.92
2023-02-13T08:08:05.306Z,30.45
2023-02-13T08:13:09.933Z,32.45
2023-02-13T08:18:11.605Z,32.03
2023-02-13T08:23:13.384Z,33.00
2023-02-13T08:28:16.802Z,33.38
2023-02-13T08:33:18.565Z,33.38
2023-02-13T08:38:20.289Z,35.42
2023-02-13T08:43:23.318Z,26.08
2023-02-13T08:48:25.062Z,26.05
2023-02-13T08:53:33.045Z,25.35
2023-02-13T08:58:36.276Z,23.92
2023-02-13T09:03:37.979Z,25.25
2023-02-13T09:08:39.685Z,25.00
2023-02-13T09:13:42.778Z,21.40
2023-02-13T09:18:47.321Z,22.17
2023-02-13T09:23:49.333Z,20.73
2023-02-13T09:28:52.382Z,21.00
2023-02-13T09:33:54.141Z,19.85
2023-02-13T09:38:57.433Z,21.48
2023-02-13T09:44:04.576Z,21.45
2023-02-13T09:49:09.332Z,20.80
2023-02-13T09:54:16.117Z,22.27
2023-02-13T09:59:39.674Z,21.70
2023-02-13T10:04:52.409Z,21.27
2023-02-13T10:10:02.022Z,21.50
2023-02-13T10:15:15.168Z,19.80
2023-02-13T10:20:27.750Z,20.15
2023-02-13T10:25:34.667Z,20.42
2023-02-13T10:30:48.800Z,21.87
2023-02-13T10:35:56.563Z,20.98
2023-02-13T10:41:20.365Z,20.33
2023-02-13T10:46:29.517Z,19.90
2023-02-13T10:51:35.721Z,20.77
2023-02-13T10:56:42.092Z,20.30
2023-02-13T11:01:53.605Z,18.75
2023-02-13T11:06:58.475Z,19.50
2023-02-13T11:12:24.429Z,20.67
2023-02-13T11:17:30.416Z,20.05
2023-02-13T11:22:33.957Z,20.37
2023-02-13T11:27:38.133Z,19.10
2023-02-13T11:32:41.229Z,18.77
2023-02-13T11:37:43.004Z,20.00
2023-02-13T11:42:47.696Z,18.30
2023-02-13T11:47:51.853Z,18.87
2023-02-13T11:52:56.880Z,17.02
2023-02-13T11:58:01.831Z,17.92
2023-02-13T12:03:26.255Z,18.67
2023-02-13T12:08:29.042Z,16.20
2023-02-13T12:13:35.374Z,16.90
2023-02-13T12:18:42.037Z,15.70
2023-02-13T12:23:49.499Z,15.45
2023-02-13T12:29:10.215Z,14.38
2023-02-13T12:34:43.700Z,15.07
2023-02-13T12:39:58.964Z,16.33
2023-02-13T12:45:29.891Z,15.82
2023-02-13T12:50:41.516Z,15.23
2023-02-13T12:56:09.819Z,15.48
2023-02-13T13:01:19.454Z,15.70
2023-02-13T13:06:43.922Z,14.45
2023-02-13T13:12:25.198Z,14.27
2023-02-13T13:17:45.087Z,15.02
2023-02-13T13:22:53.524Z,14.45
2023-02-13T13:28:01.054Z,16.45
2023-02-13T13:33:10.167Z,14.10
2023-02-13T13:38:19.503Z,13.73
2023-02-13T13:43:29.116Z,14.32
2023-02-13T13:48:58.374Z,14.05
2023-02-13T13:54:35.542Z,15.00
2023-02-13T14:00:01.017Z,13.60
2023-02-13T14:05:10.528Z,14.23
2023-02-13T14:11:02.140Z,13.55
2023-02-13T14:16:05.734Z,13.30
2023-02-13T14:21:09.970Z,12.88
2023-02-13T14:26:33.495Z,14.25
2023-02-13T14:31:36.839Z,12.48
2023-02-13T14:36:40.570Z,12.88
2023-02-13T14:41:56.161Z,13.25
2023-02-13T14:46:59.542Z,11.90
2023-02-13T14:52:04.685Z,12.65
2023-02-13T15:02:22.418Z,12.77
2023-02-13T15:07:28.771Z,13.52
2023-02-13T15:12:33.665Z,12.45
2023-02-13T15:17:36.081Z,13.62
2023-02-13T15:22:41.532Z,12.70
2023-02-13T15:27:44.671Z,12.02
2023-02-13T15:32:54.410Z,12.77
2023-02-13T15:37:56.375Z,13.88
2023-02-13T15:43:00.641Z,13.50
2023-02-13T15:48:02.415Z,12.47
2023-02-13T15:53:10.914Z,12.98
2023-02-13T15:58:14.168Z,12.05
2023-02-13T16:03:17.697Z,12.93
2023-02-13T16:08:29.764Z,13.50
2023-02-13T16:13:32.994Z,13.27
2023-02-13T16:18:35.357Z,13.65
2023-02-13T16:23:37.367Z,14.00
2023-02-13T16:28:40.385Z,13.73
2023-02-13T16:33:42.861Z,13.50
2023-02-13T16:38:45.941Z,13.07
2023-02-13T16:43:50.210Z,13.70
2023-02-13T16:49:04.879Z,13.80
2023-02-13T16:54:18.417Z,14.55
2023-02-13T16:59:32.441Z,14.40
2023-02-13T17:04:34.139Z,14.87
2023-02-13T17:09:35.965Z,14.65
2023-02-13T17:14:39.169Z,14.68
2023-02-13T17:19:41.062Z,15.35
2023-02-13T17:24:42.823Z,15.73
2023-02-13T17:29:46.051Z,16.62
2023-02-13T17:34:48.095Z,18.45
2023-02-13T17:39:50.686Z,17.15
2023-02-13T17:45:42.213Z,17.52
2023-02-13T17:50:47.102Z,18.45
2023-02-13T17:55:55.299Z,17.10
2023-02-13T18:01:00.139Z,17.10
2023-02-13T18:11:11.837Z,17.77
2023-02-13T18:16:19.759Z,20.15
2023-02-13T18:21:35.066Z,20.17
2023-02-13T18:31:38.645Z,20.67
2023-02-13T18:42:26.209Z,21.77
2023-02-13T18:47:32.273Z,21.75
2023-02-13T18:52:34.452Z,21.75
2023-02-13T18:57:37.536Z,22.85
2023-02-13T19:02:39.338Z,23.98
2023-02-13T19:07:41.199Z,24.23
2023-02-13T19:12:44.348Z,23.48
2023-02-13T19:17:46.093Z,25.40
2023-02-13T19:22:47.783Z,24.50
2023-02-13T19:27:51.110Z,24.67
2023-02-13T19:32:55.935Z,23.38
2023-02-13T19:37:57.631Z,23.17
2023-02-13T19:43:00.642Z,24.15
2023-02-13T19:48:02.302Z,23.65
2023-02-13T19:53:10.312Z,22.75
2023-02-13T19:58:13.476Z,24.40
2023-02-13T20:03:15.241Z,22.25
2023-02-13T20:08:17.019Z,25.85
2023-02-13T20:13:20.089Z,23.23
2023-02-13T20:18:22.036Z,23.92
2023-02-13T20:23:23.769Z,24.15
2023-02-13T20:28:26.811Z,22.60
2023-02-13T20:33:28.544Z,23.23
2023-02-13T20:38:30.285Z,22.35
2023-02-13T20:43:38.449Z,22.87
2023-02-13T20:49:07.785Z,23.60
2023-02-13T20:54:10.408Z,23.02
2023-02-13T20:59:29.228Z,23.23
2023-02-13T21:04:31.162Z,22.48
2023-02-13T21:09:33.006Z,23.05
2023-02-13T21:14:43.946Z,24.20
2023-02-13T21:20:10.804Z,24.02
2023-02-13T21:30:36.363Z,24.02
2023-02-13T21:35:38.089Z,22.15
2023-02-13T21:40:46.508Z,22.67
2023-02-13T21:46:11.952Z,23.45
2023-02-13T21:51:21.169Z,22.58
2023-02-13T22:02:34.357Z,24.63
2023-02-13T22:07:43.730Z,24.80
2023-02-13T22:13:02.491Z,25.25
2023-02-13T22:18:21.680Z,23.90
2023-02-13T22:23:31.498Z,25.23
2023-02-13T22:29:16.677Z,22.37
2023-02-13T22:34:41.336Z,22.85
2023-02-13T22:39:43.305Z,24.50
2023-02-13T22:44:45.220Z,23.17
2023-02-13T22:49:48.411Z,24.35
2023-02-13T22:55:23.105Z,23.73
2023-02-13T23:00:28.760Z,26.15
2023-02-13T23:05:31.901Z,23.62
2023-02-13T23:10:42.805Z,23.40
2023-02-13T23:15:55.275Z,23.80
2023-02-13T23:21:18.002Z,24.00
2023-02-13T23:26:27.536Z,24.73
2023-02-13T23:31:32.269Z,23.80
2023-02-13T23:36:51.358Z,25.55
2023-02-13T23:42:02.497Z,24.37
2023-02-13T23:47:07.324Z,23.85
2023-02-13T23:52:16.552Z,22.98
2023-02-13T23:57:18.728Z,25.02
